createdAt,value
2023-02-14T00:06:38.935Z,100.00
2023-02-14T00:13:21.326Z,100.00
2023-02-14T00:20:04.325Z,100.00
2023-02-14T00:26:48.454Z,100.00
2023-02-14T00:33:30.725Z,100.00
2023-02-14T00:40:13.917Z,100.00
2023-02-14T00:46:56.213Z,100.00
2023-02-14T00:53:39.413Z,100.00
2023-02-14T01:00:22.403Z,100.00
2023-02-14T01:07:04.777Z,100.00
2023-02-14T01:13:49.341Z,100.00
2023-02-14T01:20:32.213Z,100.00
2023-02-14T01:27:14.467Z,100.00
2023-02-14T01:33:58.113Z,100.00
2023-02-14T01:40:44.694Z,100.00
2023-02-14T01:47:29.551Z,100.00
2023-02-14T01:54:12.971Z,100.00
2023-02-14T02:00:58.750Z,100.00
2023-02-14T02:07:42.022Z,100.00
2023-02-14T02:14:24.471Z,100.00
2023-02-14T02:21:26.755Z,100.00
2023-02-14T02:28:21.437Z,100.00
2023-02-14T02:35:21.364Z,100.00
2023-02-14T02:42:21.833Z,100.00
2023-02-14T02:49:48.573Z,100.00
2023-02-14T02:56:53.506Z,100.00
2023-02-14T03:03:56.471Z,100.00
2023-02-14T03:10:40.112Z,100.00
2023-02-14T03:18:02.200Z,100.00
2023-02-14T03:25:04.984Z,100.00
2023-02-14T03:32:13.969Z,100.00
2023-02-14T03:39:14.605Z,100.00
2023-02-14T03:46:16.489Z,100.00
2023-02-14T03:53:00.561Z,100.00
2023-02-14T03:59:43.392Z,100.00
2023-02-14T04:06:25.978Z,100.00
2023-02-14T04:13:08.232Z,100.00
2023-02-14T04:19:50.752Z,100.00
2023-02-14T04:26:33.070Z,100.00
2023-02-14T04:33:15.509Z,100.00
2023-02-14T04:39:57.806Z,100.00
2023-02-14T04:46:40.146Z,100.00
2023-02-14T04:53:23.239Z,100.00
2023-02-14T05:00:06.930Z,100.00
2023-02-14T05:06:49.390Z,100.00
2023-02-14T05:13:34.570Z,100.00
2023-02-14T05:20:17.249Z,100.00
2023-02-14T05:26:59.761Z,100.00
2023-02-14T05:33:42.137Z,100.00
2023-02-14T05:47:05.808Z,100.00
2023-02-14T05:53:48.358Z,100.00
2023-02-14T06:00:34.536Z,100.00
2023-02-14T06:07:17.297Z,100.00
2023-02-14T06:13:59.578Z,100.00
2023-02-14T06:20:45.152Z,100.00
2023-02-14T06:27:30.124Z,100.00
2023-02-14T06:34:14.376Z,100.00
2023-02-14T06:41:07.229Z,100.00
2023-02-14T06:47:49.590Z,100.00
2023-02-14T06:54:32.337Z,100.00
2023-02-14T07:01:14.728Z,100.00
2023-02-14T07:07:56.991Z,100.00
2023-02-14T07:14:39.387Z,100.00
2023-02-14T07:21:21.727Z,100.00
2023-02-14T07:28:04.889Z,100.00
2023-02-14T07:34:50.317Z,100.00
2023-02-14T07:41:32.852Z,100.00
2023-02-14T07:48:15.250Z,100.00
2023-02-14T07:54:57.793Z,100.00
2023-02-14T08:01:40.250Z,100.00
2023-02-14T08:08:30.161Z,100.00
2023-02-14T08:15:30.782Z,100.00
2023-02-14T08:22:13.325Z,100.00
2023-02-14T08:28:55.911Z,100.00
2023-02-14T08:35:39.121Z,100.00
2023-02-14T08:42:21.426Z,98.37
2023-02-14T08:49:03.831Z,97.11
2023-02-14T08:55:46.388Z,96.55
2023-02-14T09:02:28.843Z,97.58
2023-02-14T09:09:11.217Z,94.71
2023-02-14T09:15:53.659Z,93.38
2023-02-14T09:22:36.006Z,92.04
2023-02-14T09:29:18.743Z,90.20
2023-02-14T09:36:13.392Z,89.04
2023-02-14T09:43:21.296Z,87.66
2023-02-14T09:50:24.630Z,87.89
2023-02-14T09:57:30.357Z,85.10
2023-02-14T10:04:58.011Z,84.97
2023-02-14T10:11:43.747Z,83.76
2023-02-14T10:18:43.627Z,83.02
2023-02-14T10:25:54.415Z,83.23
2023-02-14T10:32:57.088Z,82.62
2023-02-14T10:40:30.409Z,81.13
2023-02-14T10:47:36.989Z,81.23
2023-02-14T10:54:39.492Z,81.03
2023-02-14T11:01:22.571Z,80.19
2023-02-14T11:08:31.744Z,79.99
2023-02-14T11:15:29.142Z,80.18
2023-02-14T11:22:28.700Z,79.58
2023-02-14T11:29:15.255Z,77.42
2023-02-14T11:35:58.326Z,76.54
2023-02-14T11:42:46.581Z,76.26
2023-02-14T11:49:35.738Z,75.62
2023-02-14T11:56:20.864Z,74.29
2023-02-14T12:03:05.760Z,74.34
2023-02-14T12:10:07.954Z,73.45
2023-02-14T12:17:06.941Z,72.96
2023-02-14T12:23:49.356Z,72.12
2023-02-14T12:30:34.902Z,71.92
2023-02-14T12:37:31.559Z,71.26
2023-02-14T12:44:30.531Z,69.50
2023-02-14T12:51:18.768Z,69.71
2023-02-14T12:58:37.901Z,68.73
2023-02-14T13:05:50.990Z,69.25
2023-02-14T13:13:14.351Z,68.93
2023-02-14T13:20:26.094Z,67.72
2023-02-14T13:27:27.825Z,68.03
2023-02-14T13:34:43.747Z,67.42
2023-02-14T13:41:28.506Z,67.59
2023-02-14T13:48:19.829Z,67.19
2023-02-14T13:55:06.217Z,67.99
2023-02-14T14:01:50.221Z,68.24
2023-02-14T14:08:35.383Z,68.51
2023-02-14T14:15:20.506Z,68.93
2023-02-14T14:22:12.119Z,69.42
2023-02-14T14:28:54.769Z,69.85
2023-02-14T14:35:37.069Z,69.71
2023-02-14T14:42:21.033Z,70.95
2023-02-14T14:49:05.846Z,72.08
2023-02-14T14:55:52.338Z,73.04
2023-02-14T15:02:35.195Z,74.10
2023-02-14T15:09:32.509Z,75.23
2023-02-14T15:16:25.124Z,76.37
2023-02-14T15:23:08.051Z,77.45
2023-02-14T15:30:19.591Z,78.35
2023-02-14T15:37:06.336Z,79.06
2023-02-14T15:43:54.806Z,79.64
2023-02-14T15:50:49.287Z,80.19
2023-02-14T15:57:31.897Z,80.66
2023-02-14T16:04:14.836Z,80.92
2023-02-14T16:11:09.836Z,81.86
2023-02-14T16:17:52.488Z,82.30
2023-02-14T16:24:36.080Z,83.09
2023-02-14T16:31:18.838Z,82.82
2023-02-14T16:38:01.157Z,83.94
2023-02-14T16:44:44.371Z,84.56
2023-02-14T16:51:32.499Z,85.00
2023-02-14T16:58:15.365Z,85.85
2023-02-14T17:04:58.975Z,84.58
2023-02-14T17:11:48.267Z,86.31
2023-02-14T17:18:33.029Z,86.41
2023-02-14T17:25:16.019Z,87.24
2023-02-14T17:31:58.477Z,85.45
2023-02-14T17:38:43.880Z,85.23
2023-02-14T17:45:26.635Z,87.21
2023-02-14T17:52:09.063Z,86.09
2023-02-14T17:58:53.420Z,85.83
2023-02-14T18:05:38.684Z,86.25
2023-02-14T18:12:21.450Z,87.45
2023-02-14T18:19:05.509Z,86.50
2023-02-14T18:25:55.499Z,87.93
2023-02-14T18:32:37.991Z,87.68
2023-02-14T18:39:20.257Z,88.21
2023-02-14T18:46:10.012Z,87.18
2023-02-14T18:52:52.573Z,88.74
2023-02-14T18:59:34.863Z,90.02
2023-02-14T19:06:18.389Z,90.80
2023-02-14T19:13:00.854Z,92.09
2023-02-14T19:19:43.270Z,94.97
2023-02-14T19:26:32.958Z,96.95
2023-02-14T19:33:15.492Z,98.32
2023-02-14T19:39:58.262Z,98.76
2023-02-14T19:46:42.921Z,99.40
2023-02-14T19:53:25.575Z,100.00
2023-02-14T20:00:11.058Z,100.00
2023-02-14T20:06:56.286Z,100.00
2023-02-14T20:13:38.848Z,100.00
2023-02-14T20:20:21.847Z,100.00
2023-02-14T20:27:04.589Z,100.00
2023-02-14T20:33:50.483Z,100.00
2023-02-14T20:40:38.097Z,100.00
2023-02-14T20:47:20.462Z,100.00
2023-02-14T20:54:06.676Z,100.00
2023-02-14T21:00:49.154Z,100.00
2023-02-14T21:07:32.455Z,100.00
2023-02-14T21:14:17.355Z,100.00
2023-02-14T21:21:36.055Z,100.00
2023-02-14T21:28:18.654Z,100.00
2023-02-14T21:35:00.979Z,100.00
2023-02-14T21:41:43.577Z,100.00
2023-02-14T21:48:44.488Z,100.00
2023-02-14T21:55:27.166Z,99.62
2023-02-14T22:02:12.440Z,99.71
2023-02-14T22:08:56.949Z,99.62
2023-02-14T22:15:41.262Z,99.24
2023-02-14T22:22:23.758Z,99.01
2023-02-14T22:29:08.515Z,99.01
2023-02-14T22:35:55.657Z,98.87
2023-02-14T22:42:37.952Z,98.42
2023-02-14T22:49:20.292Z,98.61
2023-02-14T22:56:25.031Z,98.82
2023-02-14T23:03:07.323Z,98.72
2023-02-14T23:09:52.259Z,98.49
2023-02-14T23:16:53.558Z,99.15
2023-02-14T23:23:35.788Z,99.66
2023-02-14T23:30:19.500Z,99.72
2023-02-14T23:37:02.083Z,100.00
2023-02-14T23:43:44.567Z,100.00
2023-02-14T23:50:27.782Z,100.00
2023-02-14T23:57:10.585Z,100.00
